Time;durP1;ratioP1;P1;durP2;ratioP2;P2;SDS_P1;SDS_P2;PMS_P1;PMS_P2;Temp;Humidity;BMP_temperature;BMP_pressure;BME280_temperature;BME280_humidity;BME280_pressure;Samples;Min_cycle;Max_cycle;Signal;HPM_P1;HPM_P2
2022/06/06 00:02:27;;;;;;;9.80;8.75;;;19.70;73.70;;;;;;2316870;58;21052;-78
2022/06/06 00:04:57;;;;;;;12.07;8.68;;;19.70;73.70;;;;;;2318232;58;21128;-78
2022/06/06 00:07:25;;;;;;;9.57;8.50;;;19.80;73.80;;;;;;2558142;54;21048;-78
2022/06/06 00:09:53;;;;;;;10.02;8.85;;;19.80;73.70;;;;;;2318242;58;21116;-78
2022/06/06 00:12:23;;;;;;;10.73;7.97;;;19.80;73.70;;;;;;2558204;54;21040;-78
2022/06/06 00:14:50;;;;;;;14.02;9.05;;;19.80;73.70;;;;;;2558231;54;21212;-78
2022/06/06 00:17:18;;;;;;;11.90;7.93;;;19.80;73.50;;;;;;2316699;58;21127;-77
2022/06/06 00:19:45;;;;;;;13.65;9.32;;;19.80;73.40;;;;;;2317648;58;21562;-78
2022/06/06 00:22:12;;;;;;;13.77;9.20;;;19.90;73.60;;;;;;2316907;58;21068;-78
2022/06/06 00:24:39;;;;;;;9.95;8.15;;;19.90;73.50;;;;;;2317644;58;21104;-77
2022/06/06 00:27:07;;;;;;;10.68;9.02;;;20.00;73.40;;;;;;2317329;58;21151;-77
2022/06/06 00:29:35;;;;;;;12.32;9.02;;;20.00;73.30;;;;;;2557890;54;21080;-78
2022/06/06 00:34:49;;;;;;;9.40;8.40;;;20.00;73.20;;;;;;2317237;58;21020;-77
2022/06/06 00:37:20;;;;;;;12.70;9.57;;;20.10;73.10;;;;;;2317787;58;21946;-78
2022/06/06 00:39:48;;;;;;;14.98;10.73;;;20.10;73.60;;;;;;2317810;58;21104;-78
2022/06/06 00:42:21;;;;;;;14.45;10.45;;;20.10;74.30;;;;;;2317479;58;21096;-79
2022/06/06 00:45:15;;;;;;;10.98;9.82;;;20.10;74.30;;;;;;2317902;58;21131;-77
2022/06/06 00:47:44;;;;;;;15.63;9.93;;;20.10;74.30;;;;;;2316547;58;21085;-77
2022/06/06 00:50:16;;;;;;;12.80;10.77;;;20.00;74.30;;;;;;2315666;58;21143;-77
2022/06/06 00:52:46;;;;;;;19.02;11.77;;;20.00;74.80;;;;;;2316428;58;21191;-77
2022/06/06 00:55:18;;;;;;;16.37;11.27;;;19.90;74.90;;;;;;2315280;58;21112;-76
2022/06/06 00:57:49;;;;;;;14.02;9.82;;;19.90;75.10;;;;;;2315074;58;21088;-76
2022/06/06 01:00:20;;;;;;;14.45;11.23;;;19.80;75.10;;;;;;2316356;58;21295;-77
2022/06/06 01:02:52;;;;;;;14.00;11.00;;;19.80;75.40;;;;;;2316513;58;21036;-78
2022/06/06 01:05:20;;;;;;;17.27;11.48;;;19.80;75.60;;;;;;2315685;58;21132;-78
2022/06/06 01:07:48;;;;;;;13.57;10.80;;;19.80;75.70;;;;;;2315325;58;21116;-77
2022/06/06 01:10:16;;;;;;;17.35;11.43;;;19.70;75.80;;;;;;2315634;58;21076;-77
2022/06/06 01:12:47;;;;;;;12.70;10.65;;;19.70;76.00;;;;;;2314534;58;21066;-77
2022/06/06 01:15:17;;;;;;;17.75;12.23;;;19.70;76.20;;;;;;2315829;58;21109;-76
2022/06/06 01:17:53;;;;;;;13.93;12.02;;;19.70;76.40;;;;;;2315200;58;21504;-76
2022/06/06 01:20:47;;;;;;;13.60;11.27;;;19.60;76.40;;;;;;2316194;58;21112;-76
2022/06/06 01:23:36;;;;;;;16.30;12.00;;;19.60;76.70;;;;;;2315664;58;21048;-77
2022/06/06 01:26:31;;;;;;;14.35;12.23;;;19.60;76.70;;;;;;2315223;58;21071;-76
2022/06/06 01:29:05;;;;;;;18.62;12.05;;;19.50;76.90;;;;;;2316054;58;21064;-76
2022/06/06 01:31:40;;;;;;;13.23;11.60;;;19.50;77.00;;;;;;2556616;54;21056;-76
2022/06/06 01:34:09;;;;;;;16.17;12.20;;;19.50;77.20;;;;;;2316201;58;21629;-76
2022/06/06 01:36:39;;;;;;;13.98;12.15;;;19.50;77.20;;;;;;2315838;58;21057;-76
2022/06/06 01:39:10;;;;;;;15.60;11.93;;;19.50;77.40;;;;;;2316372;58;21048;-76
2022/06/06 01:41:43;;;;;;;19.45;11.82;;;19.50;77.40;;;;;;2315280;58;21048;-76
2022/06/06 01:44:20;;;;;;;14.57;11.68;;;19.50;77.50;;;;;;2316093;58;21048;-76
2022/06/06 01:46:48;;;;;;;15.77;13.10;;;19.50;77.50;;;;;;2314562;58;21108;-76
2022/06/06 01:49:17;;;;;;;17.25;12.57;;;19.50;77.50;;;;;;2315783;58;21048;-75
2022/06/06 01:51:57;;;;;;;14.32;12.43;;;19.50;77.50;;;;;;2315006;58;21060;-75
2022/06/06 01:54:24;;;;;;;13.38;11.82;;;19.50;77.60;;;;;;2315786;58;21056;-76
2022/06/06 01:56:52;;;;;;;14.10;12.05;;;19.50;77.50;;;;;;2315413;58;21056;-76
2022/06/06 01:59:19;;;;;;;15.23;12.37;;;19.50;77.60;;;;;;2315565;58;21130;-77
2022/06/06 02:01:46;;;;;;;14.48;12.55;;;19.50;77.70;;;;;;2315320;58;21112;-76
2022/06/06 02:04:14;;;;;;;16.45;12.60;;;19.50;77.70;;;;;;2316585;58;21132;-76
2022/06/06 02:06:41;;;;;;;18.00;13.38;;;19.50;77.70;;;;;;2315605;58;21128;-76
2022/06/06 02:09:10;;;;;;;16.83;11.18;;;19.50;77.70;;;;;;2556616;54;21109;-77
2022/06/06 02:11:37;;;;;;;15.38;12.43;;;19.50;77.60;;;;;;2315777;58;21104;-77
2022/06/06 02:14:04;;;;;;;13.95;12.13;;;19.60;77.60;;;;;;2556017;54;22001;-76
2022/06/06 02:16:32;;;;;;;13.82;11.68;;;19.60;77.70;;;;;;2315812;58;21111;-75
2022/06/06 02:18:59;;;;;;;17.95;12.73;;;19.60;77.50;;;;;;2316284;58;21634;-76
2022/06/06 02:21:27;;;;;;;14.70;12.10;;;19.60;77.50;;;;;;2315970;58;21056;-76
2022/06/06 02:23:54;;;;;;;13.90;11.68;;;19.60;77.40;;;;;;2316392;58;21191;-76
2022/06/06 02:26:22;;;;;;;13.70;11.68;;;19.60;77.50;;;;;;2315883;58;21139;-77
2022/06/06 02:28:49;;;;;;;15.57;11.73;;;19.60;77.20;;;;;;2315416;58;21072;-77
2022/06/06 02:31:17;;;;;;;13.02;10.80;;;19.60;77.00;;;;;;2315674;58;21115;-76
2022/06/06 02:33:45;;;;;;;13.18;11.35;;;19.60;77.00;;;;;;2316100;58;21068;-77
2022/06/06 02:36:12;;;;;;;13.15;11.75;;;19.60;77.00;;;;;;2316340;58;21144;-77
2022/06/06 02:38:39;;;;;;;13.05;11.65;;;19.60;76.80;;;;;;2315919;58;21117;-77
2022/06/06 02:41:09;;;;;;;14.05;12.05;;;19.60;76.80;;;;;;2315506;58;21136;-77
2022/06/06 02:43:39;;;;;;;14.25;12.15;;;19.60;76.90;;;;;;2316362;58;21223;-76
2022/06/06 02:46:07;;;;;;;14.85;12.70;;;19.60;77.10;;;;;;2315005;58;21108;-77
2022/06/06 02:48:35;;;;;;;14.95;12.20;;;19.60;77.30;;;;;;2315250;58;21048;-77
2022/06/06 02:51:03;;;;;;;16.85;12.85;;;19.60;77.00;;;;;;2316404;58;21053;-77
2022/06/06 02:53:31;;;;;;;12.82;11.48;;;19.60;77.50;;;;;;2315921;58;21060;-76
2022/06/06 02:55:59;;;;;;;14.32;12.07;;;19.60;77.60;;;;;;2315748;58;21052;-77
2022/06/06 03:01:06;;;;;;;13.02;11.05;;;19.60;77.70;;;;;;2535813;54;22146;-78
2022/06/06 03:03:35;;;;;;;12.80;10.25;;;19.60;77.90;;;;;;2289837;58;21114;-78
2022/06/06 03:06:18;;;;;;;10.55;9.45;;;19.70;77.90;;;;;;2289799;58;21135;-79
2022/06/06 03:08:51;;;;;;;;;;;19.70;77.90;;;;;;2529023;55;21063;-77
2022/06/06 03:11:39;;;;;;;9.35;8.00;;;19.80;77.00;;;;;;2289924;59;20092;-79
2022/06/06 03:14:31;;;;;;;9.80;8.65;;;19.70;76.90;;;;;;2288740;59;21154;-78
2022/06/06 03:23:20;;;;;;;19.87;8.13;;;19.60;77.60;;;;;;2288772;59;21130;-77
2022/06/06 03:25:57;;;;;;;8.75;7.50;;;19.60;77.70;;;;;;2289095;59;21135;-78
2022/06/06 03:28:33;;;;;;;8.07;7.18;;;19.60;77.70;;;;;;2288834;59;21056;-78
2022/06/06 03:31:08;;;;;;;8.65;6.47;;;19.60;77.90;;;;;;2289386;59;21138;-78
2022/06/06 03:33:47;;;;;;;9.68;7.03;;;19.70;78.00;;;;;;2289465;59;21146;-78
2022/06/06 03:36:25;;;;;;;8.35;7.45;;;19.60;78.00;;;;;;2288493;59;21051;-79
2022/06/06 03:39:00;;;;;;;11.02;7.60;;;19.60;77.80;;;;;;2289112;59;21143;-77
2022/06/06 03:41:35;;;;;;;8.07;6.90;;;19.60;77.50;;;;;;2289161;59;21748;-77
2022/06/06 03:44:14;;;;;;;7.93;6.60;;;19.60;77.50;;;;;;2289780;59;21099;-77
2022/06/06 03:46:52;;;;;;;8.52;7.40;;;19.60;77.30;;;;;;2287947;59;21142;-77
2022/06/06 03:49:26;;;;;;;13.60;8.07;;;19.60;77.60;;;;;;2289138;59;21063;-78
2022/06/06 03:52:04;;;;;;;8.27;6.68;;;19.60;77.70;;;;;;2523833;55;21068;-78
2022/06/06 03:54:42;;;;;;;9.55;7.55;;;19.60;76.90;;;;;;2288028;59;21126;-77
2022/06/06 03:57:15;;;;;;;7.72;6.78;;;19.60;76.90;;;;;;2289471;59;21060;-77
2022/06/06 03:59:47;;;;;;;9.23;7.60;;;19.60;76.60;;;;;;2288646;59;21404;-78
2022/06/06 04:02:19;;;;;;;10.10;8.38;;;19.60;76.80;;;;;;2288995;59;21063;-77
2022/06/06 04:04:48;;;;;;;10.52;8.05;;;19.70;76.90;;;;;;2289418;59;21060;-77
2022/06/06 04:07:15;;;;;;;9.88;7.75;;;19.60;76.40;;;;;;2289074;59;21119;-78
2022/06/06 04:09:44;;;;;;;8.93;7.78;;;19.60;76.70;;;;;;2288633;59;21130;-77
2022/06/06 04:12:31;;;;;;;10.07;8.07;;;19.60;76.40;;;;;;2289238;59;21119;-78
2022/06/06 04:15:13;;;;;;;7.37;6.45;;;19.60;75.90;;;;;;2362655;54;21046;-74
2022/06/06 04:17:51;;;;;;;8.85;7.53;;;19.60;76.00;;;;;;2318683;58;21109;-74
2022/06/06 04:20:24;;;;;;;9.30;7.35;;;19.60;76.00;;;;;;2316300;58;21043;-71
2022/06/06 04:25:50;;;;;;;10.32;8.25;;;19.70;75.10;;;;;;2298890;58;22109;-74
2022/06/06 04:28:27;;;;;;;9.73;8.13;;;19.60;75.50;;;;;;2318224;58;21060;-73
2022/06/06 04:31:02;;;;;;;9.85;7.70;;;19.60;75.40;;;;;;2318020;58;21566;-73
2022/06/06 04:33:40;;;;;;;8.80;7.53;;;19.60;75.70;;;;;;2318262;58;21060;-75
2022/06/06 04:36:15;;;;;;;9.25;7.12;;;19.60;75.40;;;;;;2317657;58;21052;-73
2022/06/06 04:38:51;;;;;;;8.98;7.15;;;19.60;74.30;;;;;;2317596;58;21204;-75
2022/06/06 04:41:30;;;;;;;9.50;7.85;;;19.60;73.90;;;;;;2318190;58;21136;-73
2022/06/06 04:44:06;;;;;;;11.10;7.57;;;19.60;73.80;;;;;;2316089;58;21056;-73
2022/06/06 04:46:40;;;;;;;9.20;7.10;;;19.60;74.10;;;;;;2317445;58;21110;-75
2022/06/06 04:49:10;;;;;;;8.85;7.93;;;19.60;73.50;;;;;;2317383;58;21104;-75
2022/06/06 04:51:38;;;;;;;12.23;7.97;;;19.60;73.80;;;;;;2558166;54;21516;-75
2022/06/06 04:54:08;;;;;;;8.55;7.15;;;19.50;74.50;;;;;;2317901;58;21134;-75
2022/06/06 04:56:35;;;;;;;8.63;7.10;;;19.50;74.60;;;;;;2317085;58;21053;-75
2022/06/06 04:59:03;;;;;;;8.32;6.82;;;19.50;75.10;;;;;;2316187;58;21037;-75
2022/06/06 05:01:32;;;;;;;7.20;6.22;;;19.50;75.60;;;;;;2556479;54;21606;-73
2022/06/06 05:03:59;;;;;;;7.70;6.68;;;19.60;75.30;;;;;;2317112;58;21194;-74
2022/06/06 05:07:06;;;;;;;9.50;6.87;;;19.60;75.60;;;;;;2317570;58;21104;-75
2022/06/06 05:10:01;;;;;;;8.25;6.65;;;19.60;75.40;;;;;;2298229;58;21059;-73
2022/06/06 05:13:13;;;;;;;7.65;6.53;;;19.60;75.30;;;;;;2317934;58;21052;-72
2022/06/06 05:15:52;;;;;;;8.00;6.18;;;19.70;75.10;;;;;;2282488;58;21060;-74
2022/06/06 05:18:40;;;;;;;7.30;5.93;;;19.70;73.70;;;;;;2317259;58;21044;-72
2022/06/06 05:21:45;;;;;;;7.45;6.20;;;19.70;74.20;;;;;;2559323;54;21097;-75
2022/06/06 05:24:56;;;;;;;7.78;6.32;;;19.70;72.40;;;;;;2316978;58;21573;-73
2022/06/06 05:27:43;;;;;;;8.07;6.10;;;19.80;72.60;;;;;;2302049;58;21101;-75
2022/06/06 05:30:17;;;;;;;8.38;6.57;;;19.80;72.60;;;;;;2558222;54;21052;-72
2022/06/06 05:33:02;;;;;;;10.32;6.78;;;19.80;73.00;;;;;;2317569;58;21342;-74
2022/06/06 05:35:41;;;;;;;9.90;7.25;;;19.80;73.40;;;;;;2557977;53;21131;-74
2022/06/06 05:38:20;;;;;;;9.50;7.03;;;19.80;73.40;;;;;;2316723;58;21052;-73
2022/06/06 05:40:57;;;;;;;8.93;6.90;;;19.80;73.40;;;;;;2557733;54;21032;-74
2022/06/06 05:43:40;;;;;;;15.48;8.45;;;19.70;72.90;;;;;;2316542;58;21055;-73
2022/06/06 05:46:26;;;;;;;10.50;7.93;;;19.80;73.20;;;;;;2317080;58;21048;-73
2022/06/06 05:49:06;;;;;;;13.80;8.43;;;19.80;72.60;;;;;;2317179;58;21568;-74
2022/06/06 05:51:45;;;;;;;8.65;6.30;;;19.80;72.60;;;;;;2317161;58;21531;-73
2022/06/06 05:54:35;;;;;;;13.85;8.13;;;19.90;72.20;;;;;;2315863;58;21059;-74
2022/06/06 05:57:33;;;;;;;10.52;8.00;;;19.90;72.20;;;;;;2316104;58;21095;-74
2022/06/06 06:00:16;;;;;;;11.77;8.20;;;19.90;71.60;;;;;;2317479;58;21107;-74
2022/06/06 06:03:11;;;;;;;;;;;19.90;71.60;;;;;;2320444;58;21040;-73
2022/06/06 06:05:43;;;;;;;;;;;20.00;70.80;;;;;;2320505;58;20068;-74
2022/06/06 06:08:23;;;;;;;10.38;7.40;;;20.10;70.00;;;;;;2316843;58;20068;-74
2022/06/06 06:11:11;;;;;;;17.27;8.57;;;20.00;71.30;;;;;;2316372;58;21024;-74
2022/06/06 06:13:50;;;;;;;10.45;8.43;;;20.00;72.20;;;;;;2316966;58;21096;-74
2022/06/06 06:16:20;;;;;;;13.00;8.98;;;20.00;72.10;;;;;;2315993;58;21052;-74
2022/06/06 06:18:54;;;;;;;12.48;9.20;;;20.00;72.50;;;;;;2557501;54;21522;-74
2022/06/06 06:21:24;;;;;;;13.65;10.07;;;20.00;72.00;;;;;;2317297;58;21571;-74
2022/06/06 06:23:57;;;;;;;13.38;10.25;;;20.00;71.70;;;;;;2316430;58;21041;-74
2022/06/06 06:26:26;;;;;;;15.35;10.32;;;20.10;72.30;;;;;;2316587;58;21060;-74
2022/06/06 06:28:56;;;;;;;16.67;10.80;;;20.10;72.50;;;;;;2315899;58;21044;-74
2022/06/06 06:31:40;;;;;;;18.08;11.52;;;20.20;72.50;;;;;;2316670;58;21033;-74
2022/06/06 06:34:22;;;;;;;16.17;11.45;;;20.20;71.80;;;;;;2316338;58;21127;-74
2022/06/06 06:36:58;;;;;;;17.42;10.27;;;20.20;71.50;;;;;;2316351;58;21100;-74
2022/06/06 06:39:43;;;;;;;15.13;10.18;;;20.20;71.50;;;;;;2557827;54;21036;-74
2022/06/06 06:42:24;;;;;;;19.27;11.95;;;20.20;71.20;;;;;;2316460;58;21040;-74
2022/06/06 06:45:00;;;;;;;19.65;11.93;;;20.20;71.10;;;;;;2317065;58;21044;-74
2022/06/06 06:47:31;;;;;;;17.58;11.10;;;20.20;72.40;;;;;;2557654;54;21100;-74
2022/06/06 06:50:07;;;;;;;18.25;12.45;;;20.20;71.90;;;;;;2316642;58;21119;-74
2022/06/06 06:52:50;;;;;;;19.37;11.73;;;20.10;71.90;;;;;;2316787;58;21192;-74
2022/06/06 06:55:25;;;;;;;17.08;12.13;;;20.20;72.00;;;;;;2316987;58;21127;-74
2022/06/06 07:00:39;;;;;;;17.08;12.13;;;20.10;71.80;;;;;;2327928;57;22167;-74
2022/06/06 07:09:15;;;;;;;20.48;12.75;;;20.00;71.70;;;;;;2346054;57;21093;-74
2022/06/06 07:11:59;;;;;;;19.37;13.02;;;20.00;71.60;;;;;;2346947;57;21034;-74
2022/06/06 07:14:45;;;;;;;19.90;12.82;;;20.00;71.00;;;;;;2346081;57;21089;-73
2022/06/06 07:17:13;;;;;;;17.58;11.77;;;20.00;71.40;;;;;;2345449;57;21041;-73
2022/06/06 07:19:45;;;;;;;20.60;12.35;;;20.00;70.50;;;;;;2346067;57;21125;-73
2022/06/06 07:22:15;;;;;;;23.33;11.55;;;20.00;70.00;;;;;;2346288;57;21037;-73
2022/06/06 07:24:45;;;;;;;16.67;10.38;;;20.10;70.40;;;;;;2346785;57;21109;-73
2022/06/06 07:27:13;;;;;;;16.42;10.90;;;20.10;69.80;;;;;;2346831;57;21120;-73
2022/06/06 07:29:40;;;;;;;13.77;8.55;;;20.10;70.10;;;;;;2346070;57;21046;-73
2022/06/06 07:32:22;;;;;;;17.45;10.43;;;20.20;68.50;;;;;;2346200;57;21030;-73
2022/06/06 07:35:03;;;;;;;20.42;9.77;;;20.20;68.50;;;;;;2345884;57;21186;-74
2022/06/06 07:37:47;;;;;;;19.10;10.43;;;20.30;68.90;;;;;;2342584;57;21050;-74
2022/06/06 07:40:24;;;;;;;18.90;11.23;;;20.40;68.70;;;;;;2592563;52;21119;-72
2022/06/06 07:43:24;;;;;;;20.02;10.85;;;20.40;68.10;;;;;;2346401;57;21093;-73
2022/06/06 07:45:59;;;;;;;19.17;10.57;;;20.40;66.80;;;;;;2345840;57;21057;-75
2022/06/06 07:48:44;;;;;;;20.17;10.70;;;20.40;65.20;;;;;;2345605;57;21108;-75
2022/06/06 07:53:58;;;;;;;18.48;11.93;;;20.30;65.30;;;;;;2354052;57;22226;-73
2022/06/06 07:56:35;;;;;;;17.10;11.18;;;20.30;65.40;;;;;;2346125;57;21113;-73
2022/06/06 07:59:10;;;;;;;21.98;11.88;;;20.30;65.80;;;;;;2345681;57;21097;-75
2022/06/06 08:01:46;;;;;;;19.50;11.88;;;20.40;66.20;;;;;;2344850;57;21120;-75
2022/06/06 08:04:24;;;;;;;22.17;11.25;;;20.30;66.80;;;;;;2344239;57;21042;-76
2022/06/06 08:07:04;;;;;;;16.95;10.02;;;20.40;65.70;;;;;;2343981;57;21097;-73
2022/06/06 08:09:46;;;;;;;21.62;11.20;;;20.30;65.00;;;;;;2344126;57;21050;-76
2022/06/06 08:12:38;;;;;;;18.85;11.15;;;20.30;65.40;;;;;;2344273;57;21050;-75
2022/06/06 08:15:17;;;;;;;17.92;10.93;;;20.20;66.00;;;;;;2345258;57;21062;-74
2022/06/06 08:18:00;;;;;;;16.55;9.70;;;20.30;65.60;;;;;;2343945;57;21116;-75
2022/06/06 08:20:34;;;;;;;18.67;9.98;;;20.30;65.30;;;;;;2345755;57;21042;-74
2022/06/06 08:23:03;;;;;;;14.68;9.50;;;20.40;64.80;;;;;;2344950;57;21026;-73
2022/06/06 08:25:32;;;;;;;16.35;9.27;;;20.40;64.80;;;;;;2343527;57;21077;-74
2022/06/06 08:28:04;;;;;;;13.43;8.80;;;20.40;64.00;;;;;;2591691;53;21026;-74
2022/06/06 08:30:34;;;;;;;16.77;9.85;;;20.40;64.50;;;;;;2343411;57;21047;-73
2022/06/06 08:33:02;;;;;;;17.50;8.75;;;20.40;64.40;;;;;;2341673;57;21121;-75
2022/06/06 08:35:37;;;;;;;15.15;8.07;;;20.40;64.10;;;;;;2343416;57;21045;-73
2022/06/06 08:38:25;;;;;;;17.08;9.65;;;20.40;64.40;;;;;;2339798;57;21058;-75
2022/06/06 08:41:23;;;;;;;13.65;7.78;;;20.40;64.70;;;;;;2344675;57;21615;-75
2022/06/06 08:44:25;;;;;;;14.48;8.48;;;20.40;65.00;;;;;;2344493;57;21149;-74
2022/06/06 08:47:03;;;;;;;11.77;7.22;;;20.50;63.60;;;;;;2342931;57;21054;-75
2022/06/06 08:53:09;;;;;;;9.57;6.40;;;20.60;64.30;;;;;;2343148;57;21045;-73
2022/06/06 08:55:59;;;;;;;10.02;6.50;;;20.70;63.80;;;;;;2344994;57;21062;-77
2022/06/06 08:58:54;;;;;;;9.40;6.45;;;20.80;63.50;;;;;;2344641;57;21205;-74
2022/06/06 09:01:35;;;;;;;10.63;6.28;;;20.80;64.10;;;;;;2344632;57;21540;-74
2022/06/06 09:04:25;;;;;;;8.48;5.93;;;20.90;62.90;;;;;;2342899;57;21046;-76
2022/06/06 09:07:36;;;;;;;9.38;6.15;;;20.90;63.20;;;;;;2343583;57;22602;-74
2022/06/06 09:11:06;;;;;;;6.80;5.32;;;20.90;62.30;;;;;;2341426;57;21568;-73
2022/06/06 09:13:58;;;;;;;7.97;5.78;;;21.00;61.00;;;;;;2317107;57;21026;-74
2022/06/06 09:17:04;;;;;;;8.00;5.37;;;21.00;62.10;;;;;;2342939;57;21097;-74
2022/06/06 09:20:08;;;;;;;6.87;4.70;;;21.00;62.50;;;;;;2344389;57;21048;-76
2022/06/06 09:23:04;;;;;;;6.90;5.18;;;21.10;61.80;;;;;;2343323;57;21082;-73
2022/06/06 09:25:37;;;;;;;5.50;4.07;;;21.20;61.60;;;;;;2341203;57;21034;-73
2022/06/06 09:28:52;;;;;;;5.93;4.57;;;21.20;61.10;;;;;;2344029;57;21062;-73
2022/06/06 09:32:02;;;;;;;8.65;4.93;;;21.30;60.30;;;;;;2343308;57;21040;-73
2022/06/06 09:35:12;;;;;;;6.75;4.90;;;21.40;61.50;;;;;;2344142;57;21108;-74
2022/06/06 09:37:59;;;;;;;6.78;4.85;;;21.40;59.60;;;;;;2342849;57;21121;-73
2022/06/06 09:40:35;;;;;;;7.85;4.93;;;21.40;60.20;;;;;;2344444;57;21137;-75
2022/06/06 09:43:14;;;;;;;6.25;4.72;;;21.40;60.30;;;;;;2342329;57;21089;-74
2022/06/06 09:46:29;;;;;;;7.60;4.93;;;21.40;60.40;;;;;;2343372;57;21026;-74
2022/06/06 09:49:31;;;;;;;9.48;5.87;;;21.50;60.00;;;;;;2323574;57;21042;-77
2022/06/06 09:52:43;;;;;;;6.15;4.18;;;21.40;59.50;;;;;;2341763;57;21117;-74
2022/06/06 09:59:39;;;;;;;8.60;5.00;;;21.40;59.30;;;;;;2527091;53;21061;-74
2022/06/06 10:03:01;;;;;;;10.15;5.15;;;21.50;59.50;;;;;;2343927;57;21022;-77
2022/06/06 10:09:27;;;;;;;9.93;5.25;;;21.60;59.20;;;;;;2341915;57;22586;-73
2022/06/06 10:12:27;;;;;;;6.87;4.25;;;21.60;59.20;;;;;;2346772;57;21046;-73
2022/06/06 10:15:12;;;;;;;7.80;5.03;;;21.70;60.00;;;;;;2353159;52;21089;-77
2022/06/06 10:18:05;;;;;;;8.73;5.30;;;21.80;59.60;;;;;;2331359;57;21063;-77
2022/06/06 10:20:49;;;;;;;8.05;4.55;;;21.90;59.80;;;;;;2332101;57;21063;-77
2022/06/06 10:23:24;;;;;;;;;;;22.00;59.30;;;;;;2334706;57;21111;-77
2022/06/06 10:26:12;;;;;;;10.10;5.18;;;22.10;58.40;;;;;;2329832;57;20162;-77
2022/06/06 10:29:01;;;;;;;8.85;4.97;;;22.10;58.40;;;;;;2330387;57;21552;-77
2022/06/06 10:31:45;;;;;;;8.02;4.85;;;22.10;58.50;;;;;;2331870;57;21067;-77
2022/06/06 10:34:22;;;;;;;;;;;22.20;58.70;;;;;;2334947;57;21578;-77
2022/06/06 10:37:11;;;;;;;6.87;4.95;;;22.20;58.00;;;;;;2575083;53;20134;-77
2022/06/06 10:40:03;;;;;;;8.93;5.30;;;22.30;58.30;;;;;;2332597;57;21051;-79
2022/06/06 10:43:04;;;;;;;8.20;5.30;;;22.20;58.40;;;;;;2331963;57;21110;-79
2022/06/06 10:45:37;;;;;;;8.02;4.90;;;22.20;59.10;;;;;;2316536;57;21051;-80
2022/06/06 10:48:37;;;;;;;7.45;5.15;;;22.20;58.70;;;;;;2329254;57;21050;-78
2022/06/06 10:51:40;;;;;;;7.68;5.00;;;22.20;59.10;;;;;;2330961;57;21047;-79
2022/06/06 10:55:01;;;;;;;7.43;5.23;;;22.20;59.10;;;;;;2576178;53;21099;-79
2022/06/06 11:01:15;;;;;;;9.10;5.68;;;22.20;59.60;;;;;;2355464;57;22042;-75
2022/06/06 11:04:11;;;;;;;10.23;5.47;;;22.30;59.50;;;;;;2346617;57;22136;-77
2022/06/06 11:07:07;;;;;;;10.50;5.90;;;22.30;59.40;;;;;;2370205;56;21043;-76
2022/06/06 11:10:00;;;;;;;8.88;5.57;;;22.40;59.40;;;;;;2374586;56;21583;-76
2022/06/06 11:13:25;;;;;;;6.65;4.53;;;22.50;59.40;;;;;;2373561;56;21118;-75
2022/06/06 11:16:14;;;;;;;6.20;4.43;;;22.60;59.20;;;;;;2626762;52;21567;-75
2022/06/06 11:19:36;;;;;;;7.80;5.43;;;22.60;58.90;;;;;;2374568;56;21618;-73
2022/06/06 11:25:12;;;;;;;7.43;5.03;;;22.70;57.80;;;;;;2349747;57;22112;-77
2022/06/06 11:28:06;;;;;;;6.55;4.43;;;22.80;58.20;;;;;;2346675;57;21026;-76
2022/06/06 11:31:03;;;;;;;10.10;5.43;;;22.90;57.10;;;;;;2347627;57;21045;-76
2022/06/06 11:34:05;;;;;;;8.18;5.90;;;22.90;56.90;;;;;;2347254;57;21050;-75
2022/06/06 11:40:12;;;;;;;7.78;5.10;;;22.90;57.00;;;;;;2354875;57;22649;-74
2022/06/06 11:43:12;;;;;;;11.43;5.20;;;23.00;56.90;;;;;;2345385;57;21049;-75
2022/06/06 11:46:12;;;;;;;7.22;5.30;;;23.00;57.20;;;;;;2605847;52;21047;-76
2022/06/06 11:49:15;;;;;;;8.15;5.10;;;23.10;56.30;;;;;;2624660;52;21444;-75
2022/06/06 11:55:14;;;;;;;7.75;5.70;;;23.30;55.10;;;;;;2351084;57;22769;-74
2022/06/06 11:58:28;;;;;;;7.43;4.75;;;23.30;54.50;;;;;;2590050;53;21061;-75
2022/06/06 12:01:19;;;;;;;8.40;5.10;;;23.30;56.30;;;;;;2571194;53;21606;-74
2022/06/06 12:04:18;;;;;;;8.27;5.82;;;23.30;56.40;;;;;;2342786;57;21203;-74
2022/06/06 12:07:20;;;;;;;7.47;5.87;;;23.30;56.80;;;;;;2342805;57;21640;-75
2022/06/06 12:09:58;;;;;;;9.05;5.35;;;23.30;55.90;;;;;;2588633;53;21108;-74
2022/06/06 12:13:10;;;;;;;6.80;4.90;;;23.30;54.50;;;;;;2343009;57;21106;-74
2022/06/06 12:16:04;;;;;;;6.68;4.32;;;23.30;54.90;;;;;;2590105;52;21093;-74
2022/06/06 12:21:51;;;;;;;7.15;5.07;;;23.40;54.30;;;;;;2351813;57;22070;-76
2022/06/06 12:24:47;;;;;;;6.97;5.40;;;23.50;54.50;;;;;;2343501;57;21815;-75
2022/06/06 12:30:22;;;;;;;6.47;4.87;;;23.60;54.20;;;;;;2352050;57;22684;-73
2022/06/06 12:32:58;;;;;;;8.95;5.47;;;23.70;53.70;;;;;;2342612;57;21042;-74
2022/06/06 12:35:32;;;;;;;6.22;4.45;;;23.80;53.30;;;;;;2601410;52;21322;-75
2022/06/06 12:38:13;;;;;;;8.32;4.93;;;23.90;53.00;;;;;;2623760;52;21603;-74
2022/06/06 12:40:55;;;;;;;7.65;4.60;;;24.10;53.30;;;;;;2372369;56;21051;-75
2022/06/06 12:43:38;;;;;;;7.75;5.20;;;24.20;52.60;;;;;;2624413;52;21138;-74
2022/06/06 12:46:22;;;;;;;7.72;4.15;;;24.30;52.10;;;;;;2371479;56;21746;-75
2022/06/06 12:52:05;;;;;;;5.87;3.65;;;24.60;51.80;;;;;;2352784;57;22054;-75
2022/06/06 12:57:58;;;;;;;6.53;3.20;;;24.90;49.70;;;;;;2544809;53;21064;-73
2022/06/06 13:03:33;;;;;;;3.55;2.75;;;25.00;48.40;;;;;;2555538;53;21131;-75
2022/06/06 13:06:07;;;;;;;4.40;3.22;;;25.20;48.40;;;;;;2558610;54;21147;-75
2022/06/06 13:08:48;;;;;;;3.08;2.50;;;25.30;48.00;;;;;;2316924;58;21643;-75
2022/06/06 13:11:38;;;;;;;3.40;2.60;;;25.40;46.70;;;;;;2557050;54;21877;-75
2022/06/06 13:15:05;;;;;;;3.97;2.47;;;25.50;46.10;;;;;;2316012;57;21155;-76
2022/06/06 13:20:22;;;;;;;3.33;2.42;;;25.60;45.50;;;;;;2352274;57;22066;-74
2022/06/06 13:23:07;;;;;;;2.75;2.17;;;25.40;44.20;;;;;;2590965;53;21132;-75
2022/06/06 13:25:44;;;;;;;3.75;2.53;;;25.40;45.00;;;;;;2603139;52;21119;-73
2022/06/06 13:28:18;;;;;;;4.00;2.47;;;25.20;43.80;;;;;;2371386;56;21771;-74
2022/06/06 13:31:05;;;;;;;3.33;2.30;;;25.20;44.80;;;;;;2370916;56;21278;-75
2022/06/06 13:33:48;;;;;;;4.55;2.20;;;25.20;45.30;;;;;;2624780;52;21106;-75
2022/06/06 13:36:30;;;;;;;3.75;2.60;;;25.20;44.70;;;;;;2370629;56;21778;-74
2022/06/06 13:39:08;;;;;;;2.95;2.08;;;25.10;44.50;;;;;;2624725;52;21170;-74
2022/06/06 13:41:49;;;;;;;4.32;2.37;;;25.00;44.20;;;;;;2371772;56;21275;-74
2022/06/06 13:45:00;;;;;;;2.10;1.73;;;25.00;45.20;;;;;;2371807;56;21551;-74
2022/06/06 13:47:46;;;;;;;2.15;1.80;;;25.00;44.50;;;;;;2354695;56;21083;-75
2022/06/06 13:50:18;;;;;;;2.10;1.87;;;25.10;44.30;;;;;;2371803;56;21118;-74
2022/06/06 13:55:37;;;;;;;3.97;2.10;;;25.10;43.20;;;;;;2543562;54;22145;-77
2022/06/06 13:58:29;;;;;;;4.97;2.25;;;25.20;43.80;;;;;;2314672;58;21856;-75
2022/06/06 14:01:08;;;;;;;2.35;2.00;;;25.30;44.70;;;;;;2314029;58;21140;-75
2022/06/06 14:03:51;;;;;;;6.05;2.50;;;25.30;44.80;;;;;;2554890;54;21608;-75
2022/06/06 14:06:39;;;;;;;2.20;2.00;;;25.40;44.80;;;;;;2553519;54;21148;-77
2022/06/06 14:09:07;;;;;;;2.33;1.98;;;25.40;44.90;;;;;;2314343;58;21156;-77
2022/06/06 14:14:44;;;;;;;6.30;2.33;;;25.60;44.60;;;;;;2325993;57;22083;-75
2022/06/06 14:17:12;;;;;;;4.05;2.20;;;25.60;45.00;;;;;;2315807;58;21259;-75
2022/06/06 14:19:56;;;;;;;2.30;1.90;;;25.70;44.60;;;;;;2557228;53;21068;-75
2022/06/06 14:22:30;;;;;;;2.10;1.75;;;25.80;44.80;;;;;;2315130;58;21067;-75
2022/06/06 14:25:01;;;;;;;2.42;1.95;;;25.80;42.80;;;;;;2315701;58;21278;-75
2022/06/06 14:27:30;;;;;;;5.35;2.12;;;25.80;43.70;;;;;;2556773;54;21441;-75
2022/06/06 14:29:59;;;;;;;3.70;1.80;;;25.90;44.00;;;;;;2315590;58;21155;-75
2022/06/06 14:32:29;;;;;;;1.95;1.67;;;25.90;43.50;;;;;;2316266;58;21115;-75
2022/06/06 14:34:58;;;;;;;2.22;1.87;;;25.90;43.90;;;;;;2557083;54;21083;-76
2022/06/06 14:40:10;;;;;;;4.35;1.70;;;25.90;45.20;;;;;;2602812;52;22086;-78
2022/06/06 14:42:39;;;;;;;5.28;1.40;;;26.10;43.30;;;;;;2591492;53;21581;-79
2022/06/06 14:45:13;;;;;;;4.25;1.52;;;26.20;43.60;;;;;;2349063;56;21074;-80
2022/06/06 14:47:48;;;;;;;;;;;26.20;42.90;;;;;;2377142;56;21130;-80
2022/06/06 14:53:10;;;;;;;1.70;1.37;;;26.30;43.10;;;;;;2373183;56;21002;-81
2022/06/06 14:55:38;;;;;;;2.05;1.67;;;26.30;43.50;;;;;;2371938;56;21525;-80
2022/06/06 14:58:10;;;;;;;1.92;1.55;;;26.40;43.90;;;;;;2373312;56;21129;-81
2022/06/06 15:00:47;;;;;;;3.03;1.50;;;26.30;43.40;;;;;;2627274;52;21051;-80
2022/06/06 15:03:14;;;;;;;4.00;1.42;;;26.30;42.10;;;;;;2373927;56;21280;-81
2022/06/06 15:05:43;;;;;;;8.15;2.35;;;26.20;40.80;;;;;;2374033;56;21063;-81
2022/06/06 15:08:17;;;;;;;6.25;1.62;;;26.10;40.90;;;;;;2374248;56;21054;-80